AirNav   Everest Fuels
 
 911 users online  

65FA Physicians Regional Medical Center Heliport
Naples, Florida, USA

GOING TO NAPLES?


FAA INFORMATION EFFECTIVE 05 DECEMBER 2019

Location

FAA Identifier: 65FA
Lat/Long: 26-12-51.8000N 081-43-53.9600W
26-12.863333N 081-43.899333W
26.2143889,-81.7316556
(estimated)
Elevation: 5 ft. / 2 m (estimated)
From city: 3 miles NE of NAPLES, FL
Time zone: UTC -5 (UTC -4 during Daylight Saving Time)
Zip code: 34116

Heliport Operations

Heliport use: Private use. Permission required prior to landing
Activation date: 08/2016
Control tower: no
ARTCC: MIAMI CENTER
FSS: MIAMI FLIGHT SERVICE STATION
Attendance: CONTINUOUS
Wind indicator: lighted
Segmented circle: no

Heliport Communications

WX ASOS at APF (4 nm SW): PHONE 239-643-9886
WX AWOS-3PT at MKY (14 nm S): 120.075 (239-394-8187)
WX ASOS at RSW (19 nm N): PHONE 239-561-0966

Nearby radio navigation aids

VOR radial/distance  VOR name  Freq  Var
CYYr037/4.4CYPRESS VOR/DME108.6003W
RSWr175/19.1LEE COUNTY VORTAC111.8002W

Heliport Services

Runway Information

Helipad H1

Dimensions: 40 x 40 ft. / 12 x 12 m
Surface: concrete, in excellent condition
Runway edge lights: PERI
Traffic pattern: leftleft

Heliport Ownership and Management from official FAA records

Ownership: Privately-owned
Owner: NAPLES HMA
6101 PINE RIDGE ROAD
NAPLES, FL 34119
Phone 239-304-4721
Manager: AL HARRIS
6101 PINE RIDGE ROAD
NAPLES, FL 34119
Phone 239-304-4721

Additional Remarks

FOR CD CTC FORT MYERS APCH AT 239-768-1377, WHEN APCH CLSD CTC MIAMI ARTCC AT 305-716-1731.

Instrument Procedures

There are no published instrument procedures at 65FA.

Some nearby airports with instrument procedures:

KAPF - Naples Municipal Airport (4 nm SW)
KMKY - Marco Island Executive Airport (14 nm S)
KRSW - Southwest Florida International Airport (19 nm N)
KIMM - Immokalee Regional Airport (22 nm NE)
KFMY - Page Field Airport (23 nm N)
 
Loc | Ops | Rwys | IFR | FBO | Links
Com | Nav | Svcs | Stats | Notes
Aerial photo
No photo
 
Airport distance calculator
Flying to Physicians Regional Medical Center Heliport? Find the distance to fly.

From to 65FA

Sunrise and sunset
Times for 12-Dec-2019
 Local
(UTC-5)
 Zulu
(UTC)
Morning civil twilight06:4111:41
Sunrise07:0612:06
Sunset17:3522:35
Evening civil twilight18:0123:01

Current date and time
Zulu (UTC)  13-Dec-2019 00:33:16
Local (UTC-5)  12-Dec-2019 19:33:16
 
METAR
KAPF 
5nm S 
122353Z 16004KT 7SM -RA FEW022 BKN037 OVC044 22/21 A3011 RMK AO2 RAB2254 SLP195 P0031 60049 T02220211 10289 20222 53007
KMKY 
14nm S 
122356Z AUTO 33003KT 4SM RA BR FEW023 BKN035 OVC060 22/21 A3012 RMK AO2 SLP198 P0054 60155 T02170211 10283 20211 50005 TSNO $
KRSW 
19nm N 
130000Z 04006KT 10SM -RA BKN007 BKN035 OVC090 22/22 A3011 RMK AO2 P0000 T02220222
TAF
KAPF 
5nm S 
122255Z 1223/1318 VRB05KT P6SM VCSH FEW015 SCT025 BKN040 TEMPO 1223/1224 3SM RA SCT015 BKN025 OVC040 FM130000 08007KT P6SM SCT030 BKN050 BKN100 FM130300 VRB04KT P6SM FEW035 BKN060 BKN100
KRSW 
19nm N 
130008Z 1300/1324 VRB04KT P6SM VCSH SCT025 OVC100 TEMPO 1300/1301 -RA BKN007 FM130400 VRB03KT P6SM BKN025 FM130900 VRB03KT P6SM SCT025 BKN060 FM131600 17007KT P6SM SCT025 OVC100
NOTAMs
Click for the latest NOTAMs
NOTAMs are issued by the DoD/FAA and will open in a separate window not controlled by AirNav.

 

 
 

Would you like to see your business listed on this page?

 If your business provides an interesting product or service to pilots, flight crews, aircraft, or users of the Physicians Regional Medical Center Heliport, you should consider listing it here.  To start the listing process, click on the button below
 
Add a business
 

Other Pages about Physicians Regional Medical Center Heliport

Update a link
 
Copyright © AirNav, LLC. All rights reserved. Privacy Policy  Contact